sensor_id;sensor_type;location;lat;lon;timestamp;temperature;humidity
35796;DHT22;21916;52.428;13.302;2023-05-07T00:00:58;9.30;99.90
35796;DHT22;21916;52.428;13.302;2023-05-07T00:03:25;9.20;99.90
35796;DHT22;21916;52.428;13.302;2023-05-07T00:05:52;9.40;99.90
35796;DHT22;21916;52.428;13.302;2023-05-07T00:08:18;9.40;99.90
35796;DHT22;21916;52.428;13.302;2023-05-07T00:10:44;9.40;99.90
35796;DHT22;21916;52.428;13.302;2023-05-07T00:13:12;9.40;99.90
35796;DHT22;21916;52.428;13.302;2023-05-07T00:15:38;9.40;99.90
35796;DHT22;21916;52.428;13.302;2023-05-07T00:18:04;9.50;99.90
35796;DHT22;21916;52.428;13.302;2023-05-07T00:20:30;9.50;99.90
35796;DHT22;21916;52.428;13.302;2023-05-07T00:22:56;9.50;99.90
35796;DHT22;21916;52.428;13.302;2023-05-07T00:25:22;9.40;99.90
35796;DHT22;21916;52.428;13.302;2023-05-07T00:27:48;9.50;99.90
35796;DHT22;21916;52.428;13.302;2023-05-07T00:30:14;9.50;99.90
35796;DHT22;21916;52.428;13.302;2023-05-07T00:32:40;9.40;99.90
35796;DHT22;21916;52.428;13.302;2023-05-07T00:35:06;9.50;99.90
35796;DHT22;21916;52.428;13.302;2023-05-07T00:37:32;9.40;99.90
35796;DHT22;21916;52.428;13.302;2023-05-07T00:39:59;9.40;99.90
35796;DHT22;21916;52.428;13.302;2023-05-07T00:42:25;9.50;99.90
35796;DHT22;21916;52.428;13.302;2023-05-07T00:44:51;9.40;99.90
35796;DHT22;21916;52.428;13.302;2023-05-07T00:47:19;9.50;99.90
35796;DHT22;21916;52.428;13.302;2023-05-07T00:49:45;9.50;99.90
35796;DHT22;21916;52.428;13.302;2023-05-07T00:52:14;9.50;99.90
35796;DHT22;21916;52.428;13.302;2023-05-07T00:54:43;9.50;99.90
35796;DHT22;21916;52.428;13.302;2023-05-07T00:57:12;9.40;99.90
35796;DHT22;21916;52.428;13.302;2023-05-07T00:59:39;9.40;99.90
35796;DHT22;21916;52.428;13.302;2023-05-07T01:02:07;9.40;99.90
35796;DHT22;21916;52.428;13.302;2023-05-07T01:04:33;9.40;99.90
35796;DHT22;21916;52.428;13.302;2023-05-07T01:07:00;9.50;99.90
35796;DHT22;21916;52.428;13.302;2023-05-07T01:09:28;9.50;99.90
35796;DHT22;21916;52.428;13.302;2023-05-07T01:11:55;9.50;99.90
35796;DHT22;21916;52.428;13.302;2023-05-07T01:14:23;9.40;99.90
35796;DHT22;21916;52.428;13.302;2023-05-07T01:16:49;9.50;99.90
35796;DHT22;21916;52.428;13.302;2023-05-07T01:19:18;9.40;99.90
35796;DHT22;21916;52.428;13.302;2023-05-07T01:21:47;9.40;99.90
35796;DHT22;21916;52.428;13.302;2023-05-07T01:24:15;9.40;99.90
35796;DHT22;21916;52.428;13.302;2023-05-07T01:26:42;9.40;99.90
35796;DHT22;21916;52.428;13.302;2023-05-07T01:29:09;9.40;99.90
35796;DHT22;21916;52.428;13.302;2023-05-07T01:31:38;9.50;99.90
35796;DHT22;21916;52.428;13.302;2023-05-07T01:34:07;9.50;99.90
35796;DHT22;21916;52.428;13.302;2023-05-07T01:36:34;9.50;99.90
35796;DHT22;21916;52.428;13.302;2023-05-07T01:39:01;9.50;99.90
35796;DHT22;21916;52.428;13.302;2023-05-07T01:41:28;9.40;99.90
35796;DHT22;21916;52.428;13.302;2023-05-07T01:43:55;9.40;99.90
35796;DHT22;21916;52.428;13.302;2023-05-07T01:46:23;9.50;99.90
35796;DHT22;21916;52.428;13.302;2023-05-07T01:48:50;9.50;99.90
35796;DHT22;21916;52.428;13.302;2023-05-07T01:51:16;9.50;99.90
35796;DHT22;21916;52.428;13.302;2023-05-07T01:53:43;9.60;99.90
35796;DHT22;21916;52.428;13.302;2023-05-07T01:56:11;9.60;99.90
35796;DHT22;21916;52.428;13.302;2023-05-07T01:58:39;9.60;99.90
35796;DHT22;21916;52.428;13.302;2023-05-07T02:01:05;9.50;99.90
35796;DHT22;21916;52.428;13.302;2023-05-07T02:03:31;9.60;99.90
35796;DHT22;21916;52.428;13.302;2023-05-07T02:06:05;9.60;99.90
35796;DHT22;21916;52.428;13.302;2023-05-07T02:08:34;9.50;99.90
35796;DHT22;21916;52.428;13.302;2023-05-07T02:11:00;9.50;99.90
35796;DHT22;21916;52.428;13.302;2023-05-07T02:13:29;9.40;99.90
35796;DHT22;21916;52.428;13.302;2023-05-07T02:15:56;9.40;99.90
35796;DHT22;21916;52.428;13.302;2023-05-07T02:18:23;9.30;99.90
35796;DHT22;21916;52.428;13.302;2023-05-07T02:20:49;9.40;99.90
35796;DHT22;21916;52.428;13.302;2023-05-07T02:23:15;9.40;99.90
35796;DHT22;21916;52.428;13.302;2023-05-07T02:25:41;9.40;99.90
35796;DHT22;21916;52.428;13.302;2023-05-07T02:28:07;9.50;99.90
35796;DHT22;21916;52.428;13.302;2023-05-07T02:30:42;9.30;99.90
35796;DHT22;21916;52.428;13.302;2023-05-07T02:33:08;9.40;99.90
35796;DHT22;21916;52.428;13.302;2023-05-07T02:35:34;9.40;99.90
35796;DHT22;21916;52.428;13.302;2023-05-07T02:38:00;9.50;99.90
35796;DHT22;21916;52.428;13.302;2023-05-07T02:40:26;9.40;99.90
35796;DHT22;21916;52.428;13.302;2023-05-07T02:42:52;9.40;99.90
35796;DHT22;21916;52.428;13.302;2023-05-07T02:45:18;9.40;99.90
35796;DHT22;21916;52.428;13.302;2023-05-07T02:47:45;9.40;99.90
35796;DHT22;21916;52.428;13.302;2023-05-07T02:50:12;9.40;99.90
35796;DHT22;21916;52.428;13.302;2023-05-07T02:52:38;9.40;99.90
35796;DHT22;21916;52.428;13.302;2023-05-07T02:55:05;9.40;99.90
35796;DHT22;21916;52.428;13.302;2023-05-07T02:57:34;9.30;99.90
35796;DHT22;21916;52.428;13.302;2023-05-07T03:00:18;9.30;99.90
35796;DHT22;21916;52.428;13.302;2023-05-07T03:02:55;9.40;99.90
35796;DHT22;21916;52.428;13.302;2023-05-07T03:05:21;9.40;99.90
35796;DHT22;21916;52.428;13.302;2023-05-07T03:07:47;9.40;99.90
35796;DHT22;21916;52.428;13.302;2023-05-07T03:10:14;9.40;99.90
35796;DHT22;21916;52.428;13.302;2023-05-07T03:12:40;9.40;99.90
35796;DHT22;21916;52.428;13.302;2023-05-07T03:15:07;9.40;99.90
35796;DHT22;21916;52.428;13.302;2023-05-07T03:17:33;9.40;99.90
35796;DHT22;21916;52.428;13.302;2023-05-07T03:19:59;9.30;99.90
35796;DHT22;21916;52.428;13.302;2023-05-07T03:22:25;9.40;99.90
35796;DHT22;21916;52.428;13.302;2023-05-07T03:24:51;9.30;99.90
35796;DHT22;21916;52.428;13.302;2023-05-07T03:27:18;9.40;99.90
35796;DHT22;21916;52.428;13.302;2023-05-07T03:29:46;9.40;99.90
35796;DHT22;21916;52.428;13.302;2023-05-07T03:32:11;9.40;99.90
35796;DHT22;21916;52.428;13.302;2023-05-07T03:34:37;9.50;99.90
35796;DHT22;21916;52.428;13.302;2023-05-07T03:37:03;9.40;99.90
35796;DHT22;21916;52.428;13.302;2023-05-07T03:39:29;9.50;99.90
35796;DHT22;21916;52.428;13.302;2023-05-07T03:41:57;9.40;99.90
35796;DHT22;21916;52.428;13.302;2023-05-07T03:44:24;9.40;99.90
35796;DHT22;21916;52.428;13.302;2023-05-07T03:46:51;9.40;99.90
35796;DHT22;21916;52.428;13.302;2023-05-07T03:49:17;9.40;99.90
35796;DHT22;21916;52.428;13.302;2023-05-07T03:51:43;9.40;99.90
35796;DHT22;21916;52.428;13.302;2023-05-07T03:54:09;9.40;99.90
35796;DHT22;21916;52.428;13.302;2023-05-07T03:56:40;9.50;99.90
35796;DHT22;21916;52.428;13.302;2023-05-07T03:59:06;9.50;99.90
35796;DHT22;21916;52.428;13.302;2023-05-07T04:01:32;9.40;99.90
35796;DHT22;21916;52.428;13.302;2023-05-07T04:03:59;9.40;99.90
35796;DHT22;21916;52.428;13.302;2023-05-07T04:06:26;9.30;99.90
35796;DHT22;21916;52.428;13.302;2023-05-07T04:08:52;9.30;99.90
35796;DHT22;21916;52.428;13.302;2023-05-07T04:11:18;9.30;99.90
35796;DHT22;21916;52.428;13.302;2023-05-07T04:13:44;9.30;99.90
35796;DHT22;21916;52.428;13.302;2023-05-07T04:16:10;9.30;99.90
35796;DHT22;21916;52.428;13.302;2023-05-07T04:18:37;9.30;99.90
35796;DHT22;21916;52.428;13.302;2023-05-07T04:21:04;9.30;99.90
35796;DHT22;21916;52.428;13.302;2023-05-07T04:23:30;9.20;99.90
35796;DHT22;21916;52.428;13.302;2023-05-07T04:25:59;9.30;99.90
35796;DHT22;21916;52.428;13.302;2023-05-07T04:28:32;9.20;99.90
35796;DHT22;21916;52.428;13.302;2023-05-07T04:30:58;9.30;99.90
35796;DHT22;21916;52.428;13.302;2023-05-07T04:33:25;9.20;99.90
35796;DHT22;21916;52.428;13.302;2023-05-07T04:35:51;9.30;99.90
35796;DHT22;21916;52.428;13.302;2023-05-07T04:38:17;9.30;99.90
35796;DHT22;21916;52.428;13.302;2023-05-07T04:40:44;9.40;99.90
35796;DHT22;21916;52.428;13.302;2023-05-07T04:43:14;9.40;99.90
35796;DHT22;21916;52.428;13.302;2023-05-07T04:45:46;9.40;99.90
35796;DHT22;21916;52.428;13.302;2023-05-07T04:48:12;9.40;99.90
35796;DHT22;21916;52.428;13.302;2023-05-07T04:50:40;9.30;99.90
35796;DHT22;21916;52.428;13.302;2023-05-07T04:53:08;9.30;99.90
35796;DHT22;21916;52.428;13.302;2023-05-07T04:55:34;9.30;99.90
35796;DHT22;21916;52.428;13.302;2023-05-07T04:58:00;9.40;99.90
35796;DHT22;21916;52.428;13.302;2023-05-07T05:00:28;9.40;99.90
35796;DHT22;21916;52.428;13.302;2023-05-07T05:02:55;9.40;99.90
35796;DHT22;21916;52.428;13.302;2023-05-07T05:05:22;9.50;99.90
35796;DHT22;21916;52.428;13.302;2023-05-07T05:07:51;9.50;99.90
35796;DHT22;21916;52.428;13.302;2023-05-07T05:10:18;9.60;99.90
35796;DHT22;21916;52.428;13.302;2023-05-07T05:12:44;9.60;99.90
35796;DHT22;21916;52.428;13.302;2023-05-07T05:15:12;9.60;99.90
35796;DHT22;21916;52.428;13.302;2023-05-07T05:17:39;9.70;99.90
35796;DHT22;21916;52.428;13.302;2023-05-07T05:20:06;9.70;99.90
35796;DHT22;21916;52.428;13.302;2023-05-07T05:22:32;9.60;99.90
35796;DHT22;21916;52.428;13.302;2023-05-07T05:24:59;9.60;99.90
35796;DHT22;21916;52.428;13.302;2023-05-07T05:27:26;9.70;99.90
35796;DHT22;21916;52.428;13.302;2023-05-07T05:29:52;9.70;99.90
35796;DHT22;21916;52.428;13.302;2023-05-07T05:32:18;9.80;99.90
35796;DHT22;21916;52.428;13.302;2023-05-07T05:34:44;9.90;99.90
35796;DHT22;21916;52.428;13.302;2023-05-07T05:37:10;9.90;99.90
35796;DHT22;21916;52.428;13.302;2023-05-07T05:39:37;9.80;99.90
35796;DHT22;21916;52.428;13.302;2023-05-07T05:42:03;9.80;99.90
35796;DHT22;21916;52.428;13.302;2023-05-07T05:44:29;9.90;99.90
35796;DHT22;21916;52.428;13.302;2023-05-07T05:46:58;10.00;99.90
35796;DHT22;21916;52.428;13.302;2023-05-07T05:49:25;10.10;99.90
35796;DHT22;21916;52.428;13.302;2023-05-07T05:51:51;10.20;99.90
35796;DHT22;21916;52.428;13.302;2023-05-07T05:54:17;10.30;99.90
35796;DHT22;21916;52.428;13.302;2023-05-07T05:56:43;10.40;99.90
35796;DHT22;21916;52.428;13.302;2023-05-07T05:59:10;10.60;99.90
35796;DHT22;21916;52.428;13.302;2023-05-07T06:01:36;10.70;99.90
35796;DHT22;21916;52.428;13.302;2023-05-07T06:04:04;10.60;99.90
35796;DHT22;21916;52.428;13.302;2023-05-07T06:06:30;10.70;99.90
35796;DHT22;21916;52.428;13.302;2023-05-07T06:08:57;10.80;99.90
35796;DHT22;21916;52.428;13.302;2023-05-07T06:11:29;10.90;99.90
35796;DHT22;21916;52.428;13.302;2023-05-07T06:13:55;11.10;99.90
35796;DHT22;21916;52.428;13.302;2023-05-07T06:16:21;11.30;99.90
35796;DHT22;21916;52.428;13.302;2023-05-07T06:18:47;11.30;99.90
35796;DHT22;21916;52.428;13.302;2023-05-07T06:21:15;11.30;99.90
35796;DHT22;21916;52.428;13.302;2023-05-07T06:23:41;11.50;99.90
35796;DHT22;21916;52.428;13.302;2023-05-07T06:26:07;11.50;99.90
35796;DHT22;21916;52.428;13.302;2023-05-07T06:28:38;11.50;99.90
35796;DHT22;21916;52.428;13.302;2023-05-07T06:33:38;11.30;99.90
35796;DHT22;21916;52.428;13.302;2023-05-07T06:36:05;11.30;99.90
35796;DHT22;21916;52.428;13.302;2023-05-07T06:38:32;11.40;99.90
35796;DHT22;21916;52.428;13.302;2023-05-07T06:40:58;11.40;99.90
35796;DHT22;21916;52.428;13.302;2023-05-07T06:43:24;11.50;99.90
35796;DHT22;21916;52.428;13.302;2023-05-07T06:46:12;11.40;99.90
35796;DHT22;21916;52.428;13.302;2023-05-07T06:48:38;11.50;99.90
35796;DHT22;21916;52.428;13.302;2023-05-07T06:51:05;11.50;99.90
35796;DHT22;21916;52.428;13.302;2023-05-07T06:53:32;11.70;99.90
35796;DHT22;21916;52.428;13.302;2023-05-07T06:55:59;11.70;99.90
35796;DHT22;21916;52.428;13.302;2023-05-07T06:58:25;11.70;99.90
35796;DHT22;21916;52.428;13.302;2023-05-07T07:00:51;12.00;99.90
35796;DHT22;21916;52.428;13.302;2023-05-07T07:03:17;12.00;99.90
35796;DHT22;21916;52.428;13.302;2023-05-07T07:05:44;12.10;99.90
35796;DHT22;21916;52.428;13.302;2023-05-07T07:08:10;12.00;99.90
35796;DHT22;21916;52.428;13.302;2023-05-07T07:10:36;11.90;99.90
35796;DHT22;21916;52.428;13.302;2023-05-07T07:13:02;12.00;99.90
35796;DHT22;21916;52.428;13.302;2023-05-07T07:15:28;12.10;99.90
35796;DHT22;21916;52.428;13.302;2023-05-07T07:17:55;12.10;99.90
35796;DHT22;21916;52.428;13.302;2023-05-07T07:20:23;12.20;99.90
35796;DHT22;21916;52.428;13.302;2023-05-07T07:22:48;12.40;99.90
35796;DHT22;21916;52.428;13.302;2023-05-07T07:25:16;12.50;99.90
35796;DHT22;21916;52.428;13.302;2023-05-07T07:27:42;12.70;99.90
35796;DHT22;21916;52.428;13.302;2023-05-07T07:30:09;12.70;99.90
35796;DHT22;21916;52.428;13.302;2023-05-07T07:32:37;12.70;99.90
35796;DHT22;21916;52.428;13.302;2023-05-07T07:35:04;12.70;99.90
35796;DHT22;21916;52.428;13.302;2023-05-07T07:37:30;12.90;99.90
35796;DHT22;21916;52.428;13.302;2023-05-07T07:39:57;12.90;99.90
35796;DHT22;21916;52.428;13.302;2023-05-07T07:42:23;13.00;99.90
35796;DHT22;21916;52.428;13.302;2023-05-07T07:44:49;13.10;99.90
35796;DHT22;21916;52.428;13.302;2023-05-07T07:47:18;13.20;99.90
35796;DHT22;21916;52.428;13.302;2023-05-07T07:49:46;13.30;99.90
35796;DHT22;21916;52.428;13.302;2023-05-07T07:52:12;13.30;99.90
35796;DHT22;21916;52.428;13.302;2023-05-07T07:54:38;13.50;99.90
35796;DHT22;21916;52.428;13.302;2023-05-07T07:57:06;13.60;99.90
35796;DHT22;21916;52.428;13.302;2023-05-07T07:59:33;13.40;99.90
35796;DHT22;21916;52.428;13.302;2023-05-07T08:01:59;13.60;99.90
35796;DHT22;21916;52.428;13.302;2023-05-07T08:04:27;13.80;99.90
35796;DHT22;21916;52.428;13.302;2023-05-07T08:06:55;14.00;99.90
35796;DHT22;21916;52.428;13.302;2023-05-07T08:09:22;14.10;99.90
35796;DHT22;21916;52.428;13.302;2023-05-07T08:11:49;14.30;99.90
35796;DHT22;21916;52.428;13.302;2023-05-07T08:14:16;14.20;99.90
35796;DHT22;21916;52.428;13.302;2023-05-07T08:16:45;14.40;99.90
35796;DHT22;21916;52.428;13.302;2023-05-07T08:19:11;14.50;99.90
35796;DHT22;21916;52.428;13.302;2023-05-07T08:21:40;14.80;99.90
35796;DHT22;21916;52.428;13.302;2023-05-07T08:24:08;15.00;99.90
35796;DHT22;21916;52.428;13.302;2023-05-07T08:26:34;15.20;99.90
35796;DHT22;21916;52.428;13.302;2023-05-07T08:29:02;15.40;99.90
35796;DHT22;21916;52.428;13.302;2023-05-07T08:31:28;15.30;99.90
35796;DHT22;21916;52.428;13.302;2023-05-07T08:33:55;15.10;99.90
35796;DHT22;21916;52.428;13.302;2023-05-07T08:36:21;15.10;99.90
35796;DHT22;21916;52.428;13.302;2023-05-07T08:38:47;15.20;99.90
35796;DHT22;21916;52.428;13.302;2023-05-07T08:41:13;15.10;99.90
35796;DHT22;21916;52.428;13.302;2023-05-07T08:43:41;15.10;99.90
35796;DHT22;21916;52.428;13.302;2023-05-07T08:46:12;14.90;99.90
35796;DHT22;21916;52.428;13.302;2023-05-07T08:48:42;15.10;99.90
35796;DHT22;21916;52.428;13.302;2023-05-07T08:51:13;15.00;99.90
35796;DHT22;21916;52.428;13.302;2023-05-07T08:53:41;15.10;99.90
35796;DHT22;21916;52.428;13.302;2023-05-07T08:56:11;15.20;99.90
35796;DHT22;21916;52.428;13.302;2023-05-07T08:58:37;15.40;99.90
35796;DHT22;21916;52.428;13.302;2023-05-07T09:01:09;15.60;99.90
35796;DHT22;21916;52.428;13.302;2023-05-07T09:03:38;15.80;99.90
35796;DHT22;21916;52.428;13.302;2023-05-07T09:06:05;15.80;99.90
35796;DHT22;21916;52.428;13.302;2023-05-07T09:08:35;15.70;99.90
35796;DHT22;21916;52.428;13.302;2023-05-07T09:11:03;15.70;99.90
35796;DHT22;21916;52.428;13.302;2023-05-07T09:13:29;15.70;99.90
35796;DHT22;21916;52.428;13.302;2023-05-07T09:15:57;15.80;99.90
35796;DHT22;21916;52.428;13.302;2023-05-07T09:18:24;15.90;99.90
35796;DHT22;21916;52.428;13.302;2023-05-07T09:20:51;16.00;99.90
35796;DHT22;21916;52.428;13.302;2023-05-07T09:23:20;16.40;99.90
35796;DHT22;21916;52.428;13.302;2023-05-07T09:25:46;16.50;99.90
35796;DHT22;21916;52.428;13.302;2023-05-07T09:28:19;16.70;99.90
35796;DHT22;21916;52.428;13.302;2023-05-07T09:30:45;16.70;99.90
35796;DHT22;21916;52.428;13.302;2023-05-07T09:33:13;16.60;99.90
35796;DHT22;21916;52.428;13.302;2023-05-07T09:35:42;16.60;99.90
35796;DHT22;21916;52.428;13.302;2023-05-07T09:38:14;16.60;99.90
35796;DHT22;21916;52.428;13.302;2023-05-07T09:40:40;16.70;99.90
35796;DHT22;21916;52.428;13.302;2023-05-07T09:43:12;16.60;99.90
35796;DHT22;21916;52.428;13.302;2023-05-07T09:45:43;16.50;99.90
35796;DHT22;21916;52.428;13.302;2023-05-07T09:48:10;16.40;99.90
35796;DHT22;21916;52.428;13.302;2023-05-07T09:50:55;16.30;99.90
35796;DHT22;21916;52.428;13.302;2023-05-07T09:53:27;16.40;99.90
35796;DHT22;21916;52.428;13.302;2023-05-07T09:55:56;16.50;99.90
35796;DHT22;21916;52.428;13.302;2023-05-07T09:58:23;16.60;99.90
35796;DHT22;21916;52.428;13.302;2023-05-07T10:00:50;16.50;99.90
35796;DHT22;21916;52.428;13.302;2023-05-07T10:03:18;16.60;99.90
35796;DHT22;21916;52.428;13.302;2023-05-07T10:05:53;16.90;99.90
35796;DHT22;21916;52.428;13.302;2023-05-07T10:08:21;17.30;99.90
35796;DHT22;21916;52.428;13.302;2023-05-07T10:10:50;17.40;99.90
35796;DHT22;21916;52.428;13.302;2023-05-07T10:13:21;17.30;99.90
35796;DHT22;21916;52.428;13.302;2023-05-07T10:15:50;17.20;99.90
35796;DHT22;21916;52.428;13.302;2023-05-07T10:18:19;17.30;99.90
35796;DHT22;21916;52.428;13.302;2023-05-07T10:20:51;17.60;99.90
35796;DHT22;21916;52.428;13.302;2023-05-07T10:23:23;17.60;99.80
35796;DHT22;21916;52.428;13.302;2023-05-07T10:25:53;17.70;98.80
35796;DHT22;21916;52.428;13.302;2023-05-07T10:28:22;17.90;99.30
35796;DHT22;21916;52.428;13.302;2023-05-07T10:33:30;18.30;98.50
35796;DHT22;21916;52.428;13.302;2023-05-07T10:36:00;18.60;98.00
35796;DHT22;21916;52.428;13.302;2023-05-07T10:38:28;18.40;97.60
35796;DHT22;21916;52.428;13.302;2023-05-07T10:40:55;18.70;96.90
35796;DHT22;21916;52.428;13.302;2023-05-07T10:43:21;19.10;97.70
35796;DHT22;21916;52.428;13.302;2023-05-07T10:46:14;19.10;96.60
35796;DHT22;21916;52.428;13.302;2023-05-07T10:51:40;18.70;97.00
35796;DHT22;21916;52.428;13.302;2023-05-07T10:56:48;18.80;97.60
35796;DHT22;21916;52.428;13.302;2023-05-07T11:04:17;20.10;94.70
35796;DHT22;21916;52.428;13.302;2023-05-07T11:15:33;21.50;91.50
35796;DHT22;21916;52.428;13.302;2023-05-07T11:17:59;21.30;92.40
35796;DHT22;21916;52.428;13.302;2023-05-07T11:20:48;22.20;91.40
35796;DHT22;21916;52.428;13.302;2023-05-07T11:26:31;22.40;90.80
35796;DHT22;21916;52.428;13.302;2023-05-07T11:29:19;23.60;89.30
35796;DHT22;21916;52.428;13.302;2023-05-07T11:31:51;24.40;87.40
35796;DHT22;21916;52.428;13.302;2023-05-07T11:34:26;23.80;84.90
35796;DHT22;21916;52.428;13.302;2023-05-07T11:36:54;23.60;87.30
35796;DHT22;21916;52.428;13.302;2023-05-07T11:39:32;23.50;83.00
35796;DHT22;21916;52.428;13.302;2023-05-07T11:41:59;23.80;83.30
35796;DHT22;21916;52.428;13.302;2023-05-07T11:44:44;25.20;82.10
35796;DHT22;21916;52.428;13.302;2023-05-07T11:47:16;26.50;79.20
35796;DHT22;21916;52.428;13.302;2023-05-07T11:49:42;27.00;76.40
35796;DHT22;21916;52.428;13.302;2023-05-07T11:52:08;28.10;73.80
35796;DHT22;21916;52.428;13.302;2023-05-07T11:54:37;27.80;72.20
35796;DHT22;21916;52.428;13.302;2023-05-07T11:57:03;26.40;70.20
35796;DHT22;21916;52.428;13.302;2023-05-07T11:59:29;26.10;73.10
35796;DHT22;21916;52.428;13.302;2023-05-07T12:01:58;27.60;69.60
35796;DHT22;21916;52.428;13.302;2023-05-07T12:04:24;27.90;68.00
35796;DHT22;21916;52.428;13.302;2023-05-07T12:06:54;28.60;69.40
35796;DHT22;21916;52.428;13.302;2023-05-07T12:09:21;29.40;67.50
35796;DHT22;21916;52.428;13.302;2023-05-07T12:11:47;30.00;65.20
35796;DHT22;21916;52.428;13.302;2023-05-07T12:14:13;28.80;64.00
35796;DHT22;21916;52.428;13.302;2023-05-07T12:16:41;28.80;65.40
35796;DHT22;21916;52.428;13.302;2023-05-07T12:19:08;29.50;63.10
35796;DHT22;21916;52.428;13.302;2023-05-07T12:24:05;31.30;59.40
35796;DHT22;21916;52.428;13.302;2023-05-07T12:26:31;30.50;59.10
35796;DHT22;21916;52.428;13.302;2023-05-07T12:28:57;29.20;58.90
35796;DHT22;21916;52.428;13.302;2023-05-07T12:31:25;27.60;59.90
35796;DHT22;21916;52.428;13.302;2023-05-07T12:33:52;27.20;61.10
35796;DHT22;21916;52.428;13.302;2023-05-07T12:36:18;26.40;62.70
35796;DHT22;21916;52.428;13.302;2023-05-07T12:38:44;25.90;64.20
35796;DHT22;21916;52.428;13.302;2023-05-07T12:41:10;25.40;64.00
35796;DHT22;21916;52.428;13.302;2023-05-07T12:43:38;24.70;64.70
35796;DHT22;21916;52.428;13.302;2023-05-07T12:46:06;24.50;66.60
35796;DHT22;21916;52.428;13.302;2023-05-07T12:48:32;25.00;65.30
35796;DHT22;21916;52.428;13.302;2023-05-07T12:50:59;25.70;64.90
35796;DHT22;21916;52.428;13.302;2023-05-07T12:53:27;26.80;64.70
35796;DHT22;21916;52.428;13.302;2023-05-07T12:55:55;28.50;61.60
35796;DHT22;21916;52.428;13.302;2023-05-07T13:00:51;29.20;60.70
35796;DHT22;21916;52.428;13.302;2023-05-07T13:03:25;29.50;61.10
35796;DHT22;21916;52.428;13.302;2023-05-07T13:05:57;28.80;59.30
35796;DHT22;21916;52.428;13.302;2023-05-07T13:08:30;26.90;60.40
35796;DHT22;21916;52.428;13.302;2023-05-07T13:11:01;26.20;61.80
35796;DHT22;21916;52.428;13.302;2023-05-07T13:13:31;26.00;62.80
35796;DHT22;21916;52.428;13.302;2023-05-07T13:15:57;26.70;61.70
35796;DHT22;21916;52.428;13.302;2023-05-07T13:18:25;26.30;60.60
35796;DHT22;21916;52.428;13.302;2023-05-07T13:20:52;25.70;61.10
35796;DHT22;21916;52.428;13.302;2023-05-07T13:23:18;25.70;62.20
35796;DHT22;21916;52.428;13.302;2023-05-07T13:25:44;26.50;60.50
35796;DHT22;21916;52.428;13.302;2023-05-07T13:28:10;25.00;62.20
35796;DHT22;21916;52.428;13.302;2023-05-07T13:30:36;24.00;65.30
35796;DHT22;21916;52.428;13.302;2023-05-07T13:33:02;23.70;65.60
35796;DHT22;21916;52.428;13.302;2023-05-07T13:35:28;24.40;63.70
35796;DHT22;21916;52.428;13.302;2023-05-07T13:37:54;24.10;64.90
35796;DHT22;21916;52.428;13.302;2023-05-07T13:40:21;23.90;64.20
35796;DHT22;21916;52.428;13.302;2023-05-07T13:42:48;23.50;65.10
35796;DHT22;21916;52.428;13.302;2023-05-07T13:45:14;23.10;66.80
35796;DHT22;21916;52.428;13.302;2023-05-07T13:47:41;22.80;65.90
35796;DHT22;21916;52.428;13.302;2023-05-07T13:50:08;23.70;65.00
35796;DHT22;21916;52.428;13.302;2023-05-07T13:52:34;24.60;64.10
35796;DHT22;21916;52.428;13.302;2023-05-07T13:55:00;23.90;64.20
35796;DHT22;21916;52.428;13.302;2023-05-07T13:57:26;23.20;65.10
35796;DHT22;21916;52.428;13.302;2023-05-07T13:59:52;22.30;66.70
35796;DHT22;21916;52.428;13.302;2023-05-07T14:02:18;21.80;68.00
35796;DHT22;21916;52.428;13.302;2023-05-07T14:04:44;22.30;69.10
35796;DHT22;21916;52.428;13.302;2023-05-07T14:07:11;24.20;65.80
35796;DHT22;21916;52.428;13.302;2023-05-07T14:09:37;25.40;64.10
35796;DHT22;21916;52.428;13.302;2023-05-07T14:12:03;26.60;62.30
35796;DHT22;21916;52.428;13.302;2023-05-07T14:14:29;26.00;61.30
35796;DHT22;21916;52.428;13.302;2023-05-07T14:16:55;25.90;62.60
35796;DHT22;21916;52.428;13.302;2023-05-07T14:19:21;26.60;61.30
35796;DHT22;21916;52.428;13.302;2023-05-07T14:21:48;26.70;61.50
35796;DHT22;21916;52.428;13.302;2023-05-07T14:24:14;27.40;60.10
35796;DHT22;21916;52.428;13.302;2023-05-07T14:26:40;28.50;60.60
35796;DHT22;21916;52.428;13.302;2023-05-07T14:29:06;27.30;59.70
35796;DHT22;21916;52.428;13.302;2023-05-07T14:31:32;26.60;61.00
35796;DHT22;21916;52.428;13.302;2023-05-07T14:33:58;26.70;60.40
35796;DHT22;21916;52.428;13.302;2023-05-07T14:36:25;26.70;60.30
35796;DHT22;21916;52.428;13.302;2023-05-07T14:38:52;26.40;59.40
35796;DHT22;21916;52.428;13.302;2023-05-07T14:41:22;25.90;61.90
35796;DHT22;21916;52.428;13.302;2023-05-07T14:43:48;26.30;60.20
35796;DHT22;21916;52.428;13.302;2023-05-07T14:46:17;26.30;59.80
35796;DHT22;21916;52.428;13.302;2023-05-07T14:48:45;26.10;60.40
35796;DHT22;21916;52.428;13.302;2023-05-07T14:51:12;26.50;59.60
35796;DHT22;21916;52.428;13.302;2023-05-07T14:53:38;26.70;60.10
35796;DHT22;21916;52.428;13.302;2023-05-07T14:56:04;26.60;60.00
35796;DHT22;21916;52.428;13.302;2023-05-07T14:58:31;26.70;59.00
35796;DHT22;21916;52.428;13.302;2023-05-07T15:00:57;25.20;60.50
35796;DHT22;21916;52.428;13.302;2023-05-07T15:03:23;25.20;60.60
35796;DHT22;21916;52.428;13.302;2023-05-07T15:05:49;24.60;62.10
35796;DHT22;21916;52.428;13.302;2023-05-07T15:08:17;24.70;62.90
35796;DHT22;21916;52.428;13.302;2023-05-07T15:10:43;25.10;62.70
35796;DHT22;21916;52.428;13.302;2023-05-07T15:13:10;26.40;62.40
35796;DHT22;21916;52.428;13.302;2023-05-07T15:15:36;27.80;60.80
35796;DHT22;21916;52.428;13.302;2023-05-07T15:18:02;28.10;59.30
35796;DHT22;21916;52.428;13.302;2023-05-07T15:20:28;27.50;59.30
35796;DHT22;21916;52.428;13.302;2023-05-07T15:22:54;26.50;60.90
35796;DHT22;21916;52.428;13.302;2023-05-07T15:25:21;26.80;61.00
35796;DHT22;21916;52.428;13.302;2023-05-07T15:27:47;26.90;61.00
35796;DHT22;21916;52.428;13.302;2023-05-07T15:30:14;25.80;61.30
35796;DHT22;21916;52.428;13.302;2023-05-07T15:32:40;24.80;62.60
35796;DHT22;21916;52.428;13.302;2023-05-07T15:35:07;23.70;63.90
35796;DHT22;21916;52.428;13.302;2023-05-07T15:37:33;22.70;64.70
35796;DHT22;21916;52.428;13.302;2023-05-07T15:40:00;22.20;68.00
35796;DHT22;21916;52.428;13.302;2023-05-07T15:42:29;22.10;67.60
35796;DHT22;21916;52.428;13.302;2023-05-07T15:44:55;22.00;67.90
35796;DHT22;21916;52.428;13.302;2023-05-07T15:47:21;22.40;68.10
35796;DHT22;21916;52.428;13.302;2023-05-07T15:49:47;23.80;67.90
35796;DHT22;21916;52.428;13.302;2023-05-07T15:52:13;25.20;64.10
35796;DHT22;21916;52.428;13.302;2023-05-07T15:54:40;25.80;61.80
35796;DHT22;21916;52.428;13.302;2023-05-07T15:57:06;24.20;63.70